UAE179 EGNX-EGLL
Flight info
| Callsign | UAE179 |
|---|---|
| Flight time | N/A |
| Altitude | 15000 |
| Route | SAPCO Y53 DTY DCT BNN |
| Aircraft | A359/H-SDE2E3GHIJ3J4J5LM1ORWXY/LB1D1 |
Departure
| Time | 2026-04-28 14:55 |
|---|---|
| Airport | East Midlands Airport (EGNX) |
Arrival
| Time | N/A |
|---|---|
| Airport | London Heathrow Airport (EGLL) |
| Time | Latitude | Longitude | Altitude | Speed | Heading |
|---|---|---|---|---|---|
| 2026-04-28 14:40 | 52.82856 | -1.31565 | 306 ft | 0 kts | 88° |
| 2026-04-28 14:47 | 52.82855 | -1.31568 | 303 ft | 2 kts | 87° |
| 2026-04-28 14:48 | 52.82849 | -1.31592 | 307 ft | 2 kts | 21° |
| 2026-04-28 14:48 | 52.82834 | -1.31590 | 305 ft | 1 kts | 324° |
| 2026-04-28 14:48 | 52.82831 | -1.31587 | 306 ft | 0 kts | 318° |
| 2026-04-28 14:51 | 52.82833 | -1.31589 | 305 ft | 1 kts | 315° |
| 2026-04-28 14:51 | 52.82846 | -1.31617 | 305 ft | 6 kts | 306° |
| 2026-04-28 14:51 | 52.82885 | -1.31685 | 308 ft | 10 kts | 334° |
| 2026-04-28 14:51 | 52.82936 | -1.31643 | 306 ft | 9 kts | 59° |
| 2026-04-28 14:52 | 52.82953 | -1.31514 | 304 ft | 14 kts | 86° |
| 2026-04-28 14:52 | 52.82957 | -1.31323 | 306 ft | 19 kts | 88° |
| 2026-04-28 14:52 | 52.82962 | -1.31076 | 304 ft | 24 kts | 88° |
| 2026-04-28 14:52 | 52.82977 | -1.30794 | 301 ft | 26 kts | 71° |
| 2026-04-28 14:53 | 52.82997 | -1.30739 | 303 ft | 0 kts | 49° |
| 2026-04-28 14:53 | 52.82997 | -1.30738 | 303 ft | 0 kts | 49° |
| 2026-04-28 14:53 | 52.83002 | -1.30730 | 303 ft | 2 kts | 45° |
| 2026-04-28 14:53 | 52.83028 | -1.30700 | 303 ft | 7 kts | 27° |
| 2026-04-28 14:54 | 52.83084 | -1.30687 | 301 ft | 10 kts | 354° |
| 2026-04-28 14:54 | 52.83137 | -1.30780 | 298 ft | 13 kts | 279° |
| 2026-04-28 14:54 | 52.83134 | -1.30959 | 302 ft | 19 kts | 269° |
| 2026-04-28 14:54 | 52.83124 | -1.31606 | 306 ft | 99 kts | 268° |
| 2026-04-28 14:55 | 52.83092 | -1.33186 | 315 ft | 173 kts | 268° |
| 2026-04-28 14:55 | 52.83008 | -1.35206 | 1182 ft | 180 kts | 267° |
| 2026-04-28 14:55 | 52.82270 | -1.37012 | 1765 ft | 208 kts | 215° |
| 2026-04-28 14:55 | 52.80843 | -1.37740 | 2010 ft | 227 kts | 177° |
| 2026-04-28 14:56 | 52.79199 | -1.37478 | 2286 ft | 248 kts | 164° |
| 2026-04-28 14:56 | 52.77468 | -1.36863 | 2849 ft | 260 kts | 163° |
| 2026-04-28 14:56 | 52.75707 | -1.36312 | 3688 ft | 260 kts | 165° |
| 2026-04-28 14:56 | 52.73901 | -1.35931 | 4482 ft | 264 kts | 169° |
| 2026-04-28 14:57 | 52.72049 | -1.35714 | 5170 ft | 268 kts | 172° |
| 2026-04-28 14:57 | 52.70812 | -1.35646 | 5664 ft | 269 kts | 173° |
| 2026-04-28 14:57 | 52.68302 | -1.35617 | 6691 ft | 270 kts | 175° |
| 2026-04-28 14:57 | 52.66418 | -1.35637 | 7403 ft | 272 kts | 175° |
| 2026-04-28 14:58 | 52.64514 | -1.35664 | 8057 ft | 275 kts | 175° |
| 2026-04-28 14:58 | 52.62587 | -1.35685 | 8733 ft | 279 kts | 175° |
| 2026-04-28 14:58 | 52.60637 | -1.35696 | 9415 ft | 282 kts | 174° |
| 2026-04-28 14:58 | 52.58659 | -1.35699 | 10096 ft | 286 kts | 174° |
| 2026-04-28 14:59 | 52.56675 | -1.35696 | 10608 ft | 294 kts | 174° |
| 2026-04-28 14:59 | 52.54589 | -1.35462 | 10849 ft | 307 kts | 165° |
| 2026-04-28 14:59 | 52.52490 | -1.34559 | 11093 ft | 319 kts | 157° |
| 2026-04-28 14:59 | 52.50353 | -1.33319 | 11356 ft | 331 kts | 154° |
| 2026-04-28 15:00 | 52.48193 | -1.31895 | 11784 ft | 337 kts | 152° |
| 2026-04-28 15:00 | 52.46020 | -1.30386 | 12292 ft | 341 kts | 151° |
| 2026-04-28 15:00 | 52.43825 | -1.28845 | 12798 ft | 344 kts | 151° |
| 2026-04-28 15:00 | 52.41605 | -1.27296 | 13336 ft | 348 kts | 151° |
| 2026-04-28 15:01 | 52.39364 | -1.25750 | 13859 ft | 351 kts | 151° |
| 2026-04-28 15:01 | 52.37122 | -1.24218 | 14339 ft | 354 kts | 151° |
| 2026-04-28 15:01 | 52.34832 | -1.22666 | 14790 ft | 357 kts | 151° |
| 2026-04-28 15:01 | 52.32525 | -1.21110 | 15201 ft | 360 kts | 151° |
| 2026-04-28 15:02 | 52.30184 | -1.19534 | 15354 ft | 370 kts | 151° |
| 2026-04-28 15:02 | 52.27739 | -1.17873 | 15384 ft | 388 kts | 151° |
| 2026-04-28 15:02 | 52.25233 | -1.16181 | 15363 ft | 391 kts | 152° |
| 2026-04-28 15:02 | 52.22714 | -1.14497 | 15362 ft | 391 kts | 152° |
| 2026-04-28 15:03 | 52.20198 | -1.12816 | 15362 ft | 390 kts | 152° |
| 2026-04-28 15:03 | 52.17819 | -1.10761 | 15359 ft | 384 kts | 141° |
| 2026-04-28 15:03 | 52.15646 | -1.08269 | 15352 ft | 382 kts | 139° |
| 2026-04-28 15:03 | 52.13514 | -1.05664 | 15348 ft | 381 kts | 138° |
| 2026-04-28 15:04 | 52.11403 | -1.03046 | 15341 ft | 381 kts | 137° |
| 2026-04-28 15:04 | 52.09296 | -1.00420 | 15336 ft | 381 kts | 137° |
| 2026-04-28 15:04 | 52.07213 | -0.97820 | 15321 ft | 381 kts | 138° |
| 2026-04-28 15:04 | 52.05108 | -0.95190 | 15315 ft | 381 kts | 138° |
| 2026-04-28 15:05 | 52.03001 | -0.92563 | 15305 ft | 382 kts | 138° |
| 2026-04-28 15:05 | 52.00893 | -0.89936 | 15298 ft | 381 kts | 138° |
| 2026-04-28 15:05 | 51.98790 | -0.87318 | 15282 ft | 381 kts | 138° |
| 2026-04-28 15:05 | 51.96709 | -0.84733 | 14842 ft | 372 kts | 138° |
| 2026-04-28 15:06 | 51.94691 | -0.82227 | 14202 ft | 368 kts | 139° |
| 2026-04-28 15:06 | 51.92665 | -0.79711 | 13478 ft | 365 kts | 139° |
| 2026-04-28 15:06 | 51.90657 | -0.77223 | 12826 ft | 361 kts | 139° |
| 2026-04-28 15:06 | 51.88682 | -0.74778 | 12288 ft | 352 kts | 139° |
| 2026-04-28 15:07 | 51.86774 | -0.72423 | 12033 ft | 338 kts | 139° |
| 2026-04-28 15:07 | 51.84945 | -0.70166 | 11831 ft | 323 kts | 139° |
| 2026-04-28 15:07 | 51.83193 | -0.68006 | 11639 ft | 310 kts | 139° |
| 2026-04-28 15:07 | 51.81516 | -0.65940 | 11440 ft | 296 kts | 139° |
| 2026-04-28 15:08 | 51.79900 | -0.63947 | 11082 ft | 291 kts | 139° |
| 2026-04-28 15:08 | 51.78275 | -0.61939 | 10377 ft | 296 kts | 139° |
| 2026-04-28 15:08 | 51.76611 | -0.59885 | 9518 ft | 304 kts | 139° |
| 2026-04-28 15:08 | 51.74941 | -0.57831 | 8754 ft | 307 kts | 139° |
| 2026-04-28 15:09 | 51.73206 | -0.55877 | 8442 ft | 301 kts | 147° |
| 2026-04-28 15:09 | 51.71236 | -0.54908 | 8314 ft | 294 kts | 168° |
| 2026-04-28 15:09 | 51.69224 | -0.54696 | 8051 ft | 284 kts | 172° |
| 2026-04-28 15:09 | 51.67902 | -0.54628 | 7848 ft | 279 kts | 172° |
| 2026-04-28 15:10 | 51.65338 | -0.54929 | 7378 ft | 284 kts | 190° |
| 2026-04-28 15:10 | 51.63594 | -0.56503 | 7276 ft | 296 kts | 218° |
| 2026-04-28 15:10 | 51.62292 | -0.59102 | 7267 ft | 300 kts | 232° |
| 2026-04-28 15:10 | 51.61150 | -0.61902 | 7055 ft | 297 kts | 234° |
| 2026-04-28 15:11 | 51.60182 | -0.64864 | 6566 ft | 302 kts | 250° |
| 2026-04-28 15:11 | 51.59797 | -0.68189 | 6299 ft | 303 kts | 264° |
| 2026-04-28 15:11 | 51.59559 | -0.71561 | 6250 ft | 304 kts | 259° |
| 2026-04-28 15:11 | 51.58737 | -0.74637 | 6280 ft | 297 kts | 228° |
| 2026-04-28 15:12 | 51.57178 | -0.76629 | 5981 ft | 281 kts | 198° |
| 2026-04-28 15:12 | 51.55405 | -0.77661 | 5773 ft | 269 kts | 191° |
| 2026-04-28 15:12 | 51.53652 | -0.78538 | 5638 ft | 257 kts | 191° |
| 2026-04-28 15:12 | 51.51951 | -0.79001 | 5471 ft | 238 kts | 172° |
| 2026-04-28 15:13 | 51.50416 | -0.78484 | 5352 ft | 214 kts | 148° |
| 2026-04-28 15:13 | 51.49215 | -0.77300 | 5270 ft | 193 kts | 136° |
| 2026-04-28 15:13 | 51.48237 | -0.75984 | 5150 ft | 174 kts | 126° |
| 2026-04-28 15:13 | 51.47729 | -0.74382 | 5013 ft | 153 kts | 102° |
| 2026-04-28 15:14 | 51.47597 | -0.72796 | 4893 ft | 139 kts | 87° |
| 2026-04-28 15:14 | 51.47611 | -0.71324 | 4560 ft | 132 kts | 87° |
| 2026-04-28 15:14 | 51.47593 | -0.69694 | 3782 ft | 157 kts | 86° |
| 2026-04-28 15:14 | 51.47561 | -0.67879 | 3127 ft | 166 kts | 83° |
| 2026-04-28 15:15 | 51.47582 | -0.66048 | 2708 ft | 159 kts | 82° |
| 2026-04-28 15:15 | 51.47592 | -0.64877 | 2530 ft | 151 kts | 84° |
| 2026-04-28 15:15 | 51.47656 | -0.62785 | 2274 ft | 135 kts | 81° |
| 2026-04-28 15:15 | 51.47668 | -0.61327 | 2058 ft | 128 kts | 83° |
| 2026-04-28 15:16 | 51.47671 | -0.59904 | 1735 ft | 126 kts | 84° |
| 2026-04-28 15:16 | 51.47670 | -0.58539 | 1558 ft | 111 kts | 85° |